UWLW

Ulyanovsk East Airport

Ulyanovsk, Russian Federation
TAF UWLW 181045Z 1812/1912 21003MPS 8000 SCT030 TEMPO 1812/1818 25003G09MPS TEMPO 1818/1906 3100 BR SCT011
Issued Valid From Valid To
Oct-18 @ 10:45 UTC
(an hour ago)
Oct-18 @ 12:00 UTC
(a few seconds ago)
Oct-19 @ 12:00 UTC
(in 24 hours)
Oct-18 @ 12:00 to Oct-19 @ 12:00
TAF UWLW 181045Z 1812/1912 21003MPS 8000 SCT030
Wind Visibility Clouds
210° at 6 knots 7,998 meters
  • Scattered at 3,000' AGL
Temporary Oct-18 @ 12:00 to Oct-18 @ 18:00
TEMPO 1812/1818 25003G09MPS
Wind
250° at 6 knots
 Gusting to 17 knots
Temporary Oct-18 @ 18:00 to Oct-19 @ 06:00
TEMPO 1818/1906 3100 BR SCT011
Visibility Clouds Conditions
3,106 meters
  • Scattered at 1,100' AGL
  • Mist
TAF UWLW 181045Z 1812/1912 21003MPS 8000 SCT030 TEMPO 1812/1818 25003G09MPS TEMPO 1818/1906 3100 BR SCT011
Issued Oct-18 @ 10:45 UTC
(an hour ago)
Valid From Oct-18 @ 12:00 UTC
(a few seconds ago)
Valid To Oct-19 @ 12:00 UTC
(in 24 hours)
Oct-18 @ 12:00 - Oct-19 @ 12:00
Wind Visibility
210° at 6 knots 7,998 meters
Clouds
  • Scattered at 3,000' AGL
Temporary Oct-18 @ 12:00 - Oct-18 @ 18:00
Wind
250° at 6 knots
 Gusting to 17 knots
Temporary Oct-18 @ 18:00 - Oct-19 @ 06:00
Clouds
  • Scattered at 1,100' AGL
Conditions
  • Mist